Time;durP1;ratioP1;P1;durP2;ratioP2;P2;SDS_P1;SDS_P2;PMS_P1;PMS_P2;Temp;Humidity;BMP_temperature;BMP_pressure;BME280_temperature;BME280_humidity;BME280_pressure;Samples;Min_cycle;Max_cycle;Signal;HPM_P1;HPM_P2
2022/01/30 00:01:19;;;;;;;31.17;7.77;;;;;;;5.09;80.25;102538.38;6465971;23;20415;-75
2022/01/30 00:03:50;;;;;;;29.83;6.83;;;;;;;5.07;80.27;102547.78;6466078;23;20418;-73
2022/01/30 00:06:23;;;;;;;33.33;8.67;;;;;;;5.05;80.22;102554.56;6465805;23;20032;-74
2022/01/30 00:08:54;;;;;;;29.33;6.30;;;;;;;5.09;79.66;102548.72;6465503;23;20009;-71
2022/01/30 00:11:31;;;;;;;29.77;8.10;;;;;;;5.24;79.42;102558.75;6466263;23;20020;-73
2022/01/30 00:14:05;;;;;;;34.05;7.90;;;;;;;5.13;79.53;102567.81;6465635;23;20009;-75
2022/01/30 00:16:37;;;;;;;31.65;7.97;;;;;;;5.11;79.29;102561.69;6438788;23;20013;-73
2022/01/30 00:19:21;;;;;;;30.77;6.00;;;;;;;4.96;80.08;102562.00;6465813;23;20079;-74
2022/01/30 00:22:11;;;;;;;32.92;7.05;;;;;;;4.95;79.97;102560.22;6465698;23;20342;-74
2022/01/30 00:24:52;;;;;;;30.70;7.22;;;;;;;4.92;80.03;102557.53;6465447;23;20309;-75
2022/01/30 00:30:18;;;;;;;22.25;6.95;;;;;;;4.83;80.20;102570.06;6369357;23;20022;-74
2022/01/30 00:32:52;;;;;;;31.70;8.20;;;;;;;4.90;79.54;102570.38;6369012;23;20017;-75
2022/01/30 00:35:23;;;;;;;31.52;7.15;;;;;;;4.89;79.36;102570.31;6369146;23;20231;-75
2022/01/30 00:37:55;;;;;;;39.03;9.77;;;;;;;4.78;79.92;102572.47;6369542;23;20018;-75
2022/01/30 00:40:26;;;;;;;38.97;9.30;;;;;;;4.73;80.17;102576.56;6369049;23;20010;-74
2022/01/30 00:42:58;;;;;;;30.70;8.23;;;;;;;4.81;79.80;102574.31;6368941;23;20088;-74
2022/01/30 00:45:29;;;;;;;25.87;7.23;;;;;;;4.78;79.64;102571.59;6368923;23;20459;-75
2022/01/30 00:48:01;;;;;;;32.60;6.90;;;;;;;4.75;79.86;102570.66;6369173;23;20535;-74
2022/01/30 00:50:33;;;;;;;30.13;6.23;;;;;;;4.73;79.97;102569.72;6369326;23;20037;-74
2022/01/30 00:53:06;;;;;;;33.05;8.05;;;;;;;4.71;80.00;102575.63;6369052;23;20291;-74
2022/01/30 00:55:37;;;;;;;32.80;7.43;;;;;;;4.74;80.02;102575.75;6369851;23;20430;-74
2022/01/30 00:58:08;;;;;;;35.40;8.67;;;;;;;4.69;79.99;102579.88;6370593;23;20360;-74
2022/01/30 01:00:40;;;;;;;35.63;8.40;;;;;;;4.65;79.98;102588.31;6369762;23;20298;-74
2022/01/30 01:03:12;;;;;;;30.73;7.17;;;;;;;4.55;80.37;102587.06;6370735;23;20073;-75
2022/01/30 01:05:44;;;;;;;33.47;7.97;;;;;;;4.55;80.77;102599.97;6370107;23;20068;-73
2022/01/30 01:25:10;;;;;;;33.28;8.27;;;;;;;4.36;82.44;102593.16;6369306;23;20018;-74
2022/01/30 01:27:41;;;;;;;32.90;8.10;;;;;;;4.34;82.71;102598.25;6369378;23;20014;-74
2022/01/30 01:30:13;;;;;;;34.97;7.67;;;;;;;4.39;82.80;102603.59;6369038;23;20583;-74
2022/01/30 01:32:44;;;;;;;29.27;7.73;;;;;;;4.31;83.02;102608.44;6369228;23;20034;-74
2022/01/30 01:35:16;;;;;;;34.93;7.80;;;;;;;4.27;83.27;102611.72;6368855;23;20085;-73
2022/01/30 01:37:52;;;;;;;32.23;7.87;;;;;;;4.26;83.56;102607.38;6369044;23;20018;-74
2022/01/30 01:40:23;;;;;;;32.95;7.80;;;;;;;4.24;83.71;102616.75;6368896;23;20017;-74
2022/01/30 01:42:56;;;;;;;35.97;8.40;;;;;;;4.23;83.76;102614.09;6368579;23;20018;-71
2022/01/30 01:45:33;;;;;;;34.47;8.52;;;;;;;4.28;83.35;102608.34;6368949;23;20372;-73
2022/01/30 01:48:12;;;;;;;34.40;7.75;;;;;;;4.33;83.21;102613.66;6462627;23;20012;-74
2022/01/30 01:50:54;;;;;;;31.15;7.95;;;;;;;4.28;83.41;102618.66;6464998;23;20013;-75
2022/01/30 01:53:25;;;;;;;38.63;7.97;;;;;;;4.22;83.30;102618.41;6464631;23;20004;-72
2022/01/30 01:55:57;;;;;;;25.23;6.70;;;;;;;4.17;83.51;102617.28;6464531;23;20011;-74
2022/01/30 01:58:28;;;;;;;34.80;8.10;;;;;;;4.15;83.60;102624.09;6463886;23;20008;-73
2022/01/30 02:01:02;;;;;;;31.33;7.60;;;;;;;4.04;84.10;102620.16;6464395;23;20004;-71
2022/01/30 02:03:38;;;;;;;26.73;7.97;;;;;;;3.99;84.43;102622.53;6464472;23;20334;-73
2022/01/30 02:06:17;;;;;;;30.85;8.65;;;;;;;3.97;84.65;102622.47;6464575;23;20505;-73
2022/01/30 02:08:54;;;;;;;30.48;6.88;;;;;;;4.00;84.39;102616.59;6464450;23;20079;-74
2022/01/30 02:11:34;;;;;;;30.48;8.38;;;;;;;4.03;84.36;102610.69;6464708;23;20123;-73
2022/01/30 02:27:47;;;;;;;28.65;8.18;;;;;;;4.05;84.50;102601.31;6472636;23;20454;-74
2022/01/30 02:30:20;;;;;;;32.87;8.07;;;;;;;3.98;84.70;102605.31;6464480;23;20005;-73
2022/01/30 02:32:51;;;;;;;32.85;8.13;;;;;;;3.98;85.32;102610.47;6464325;23;20063;-72
2022/01/30 02:35:23;;;;;;;38.00;9.70;;;;;;;3.99;85.38;102610.53;6464468;23;20008;-71
2022/01/30 02:37:57;;;;;;;32.47;6.70;;;;;;;3.99;85.42;102602.81;6464200;23;20730;-72
2022/01/30 02:40:35;;;;;;;35.80;8.02;;;;;;;3.94;85.55;102609.44;6464147;23;20012;-74
2022/01/30 02:43:07;;;;;;;30.88;7.57;;;;;;;3.88;86.04;102606.63;6463917;23;20040;-74
2022/01/30 02:45:45;;;;;;;29.50;7.40;;;;;;;3.83;86.43;102605.50;6464170;23;20016;-73
2022/01/30 02:48:20;;;;;;;36.17;10.18;;;;;;;3.76;86.49;102596.63;6464088;23;20023;-73
2022/01/30 02:50:56;;;;;;;28.95;6.65;;;;;;;3.59;86.92;102601.03;6464312;23;20004;-74
2022/01/30 02:53:31;;;;;;;39.35;7.28;;;;;;;3.47;87.47;102597.91;6464486;23;20342;-74
2022/01/30 02:56:03;;;;;;;35.33;7.18;;;;;;;3.42;87.65;102605.41;6464542;23;20390;-73
2022/01/30 02:58:34;;;;;;;36.23;9.03;;;;;;;3.35;87.77;102602.47;6466269;23;20008;-74
2022/01/30 03:01:05;;;;;;;34.73;7.07;;;;;;;3.26;88.04;102603.81;6466298;23;20005;-76
2022/01/30 03:03:37;;;;;;;36.43;10.00;;;;;;;3.28;88.19;102609.03;6466707;23;20008;-74
2022/01/30 03:06:08;;;;;;;29.60;6.60;;;;;;;3.25;88.38;102620.13;6466985;23;20008;-73
2022/01/30 03:08:39;;;;;;;23.03;6.63;;;;;;;3.26;88.39;102626.16;6466036;23;20062;-75
2022/01/30 03:11:10;;;;;;;27.53;6.73;;;;;;;3.22;88.35;102622.56;6468027;23;20004;-72
2022/01/30 03:13:42;;;;;;;33.80;6.87;;;;;;;3.24;88.31;102627.78;6465717;23;20020;-73
2022/01/30 03:16:14;;;;;;;32.87;7.77;;;;;;;3.25;88.39;102627.84;6465864;23;20074;-74
2022/01/30 03:18:45;;;;;;;29.47;8.13;;;;;;;3.22;88.64;102634.53;6466273;23;20055;-73
2022/01/30 03:21:17;;;;;;;25.37;5.93;;;;;;;3.23;88.91;102642.34;6466085;23;20011;-72
2022/01/30 03:23:49;;;;;;;33.67;6.47;;;;;;;3.22;88.83;102635.44;6466629;23;20149;-75
2022/01/30 03:26:20;;;;;;;30.20;7.80;;;;;;;3.39;88.51;102643.94;6465973;23;20027;-74
2022/01/30 03:28:56;;;;;;;33.60;7.33;;;;;;;3.51;88.15;102643.66;6466009;23;20434;-72
2022/01/30 03:31:27;;;;;;;35.65;7.30;;;;;;;3.62;87.67;102649.28;6466570;23;20059;-73
2022/01/30 03:33:58;;;;;;;28.97;7.10;;;;;;;3.69;87.37;102653.00;6466446;23;20009;-73
2022/01/30 03:36:30;;;;;;;35.67;7.27;;;;;;;3.72;87.39;102653.16;6466116;23;20063;-73
2022/01/30 03:39:03;;;;;;;40.13;7.87;;;;;;;3.75;87.32;102659.34;6465813;23;20011;-74
2022/01/30 03:41:34;;;;;;;36.45;7.43;;;;;;;3.77;87.20;102662.88;6466258;23;20020;-74
2022/01/30 03:44:06;;;;;;;29.00;7.07;;;;;;;3.79;87.38;102673.28;6465863;23;20000;-73
2022/01/30 03:46:37;;;;;;;33.63;6.60;;;;;;;3.82;87.38;102676.00;6465997;23;20343;-72
2022/01/30 03:49:08;;;;;;;29.90;6.63;;;;;;;3.83;87.31;102677.75;6465717;23;20063;-75
2022/01/30 03:51:40;;;;;;;38.70;8.37;;;;;;;3.83;87.73;102682.91;6466002;23;20016;-74
2022/01/30 03:54:11;;;;;;;33.07;8.13;;;;;;;3.84;87.73;102695.88;6465803;23;20572;-72
2022/01/30 03:56:42;;;;;;;36.33;8.60;;;;;;;3.81;87.65;102688.00;6466091;23;20009;-74
2022/01/30 03:59:14;;;;;;;24.17;7.37;;;;;;;3.80;87.97;102680.19;6466117;23;20011;-73
2022/01/30 04:01:45;;;;;;;31.17;7.80;;;;;;;3.80;88.10;102683.66;6465842;23;20331;-74
2022/01/30 04:04:17;;;;;;;34.80;6.20;;;;;;;3.82;87.74;102689.75;6465717;23;20083;-73
2022/01/30 04:06:49;;;;;;;35.97;8.00;;;;;;;3.83;87.92;102688.06;6465457;23;20087;-73
2022/01/30 04:09:21;;;;;;;29.88;7.65;;;;;;;3.83;87.61;102693.22;6465346;23;20031;-74
2022/01/30 04:11:53;;;;;;;33.30;7.80;;;;;;;3.94;87.09;102698.88;6465937;23;20004;-75
2022/01/30 04:14:25;;;;;;;35.78;6.43;;;;;;;4.00;86.75;102700.03;6465628;23;20071;-74
2022/01/30 04:16:57;;;;;;;37.67;8.97;;;;;;;4.04;86.89;102710.50;6438550;23;20082;-73
2022/01/30 04:19:28;;;;;;;31.05;6.38;;;;;;;4.05;86.77;102710.56;6465710;23;20015;-75
2022/01/30 04:22:00;;;;;;;29.97;7.20;;;;;;;4.08;86.34;102713.28;6465655;23;20012;-71
2022/01/30 04:24:32;;;;;;;31.30;6.67;;;;;;;4.11;86.41;102713.44;6465723;23;20454;-74
2022/01/30 04:27:04;;;;;;;32.80;6.93;;;;;;;4.14;86.19;102710.13;6465830;23;20000;-73
2022/01/30 04:29:35;;;;;;;27.93;7.77;;;;;;;4.16;85.96;102711.06;6465618;23;20267;-72
2022/01/30 04:32:08;;;;;;;25.33;5.83;;;;;;;4.16;85.96;102718.78;6465216;23;20004;-72
2022/01/30 04:34:42;;;;;;;41.05;8.35;;;;;;;4.19;85.30;102712.06;6437847;23;20008;-73
2022/01/30 04:37:32;;;;;;;27.98;7.43;;;;;;;4.21;85.25;102717.28;6466307;23;20567;-74
2022/01/30 04:59:38;;;;;;;30.52;7.93;;;;;;;4.31;83.99;102734.94;6465580;23;20154;-72
2022/01/30 05:07:33;;;;;;;24.98;6.18;;;;;;;4.08;84.12;102743.38;6465452;23;20338;-74
2022/01/30 05:10:06;;;;;;;24.90;6.18;;;;;;;3.97;84.35;102742.88;6465188;23;20008;-73
2022/01/30 05:12:46;;;;;;;25.08;5.53;;;;;;;3.92;84.72;102745.25;6465092;23;20080;-73
2022/01/30 05:15:19;;;;;;;34.15;7.57;;;;;;;3.90;84.92;102758.91;6465124;23;20098;-73
2022/01/30 05:17:51;;;;;;;26.42;6.82;;;;;;;3.75;85.05;102759.97;6465078;23;20261;-73
2022/01/30 05:20:23;;;;;;;26.07;6.93;;;;;;;3.71;85.42;102757.16;6464677;23;20047;-72
2022/01/30 05:22:54;;;;;;;31.27;6.38;;;;;;;3.77;85.03;102753.16;6465179;23;20019;-73
2022/01/30 05:25:26;;;;;;;36.03;7.03;;;;;;;3.70;85.46;102764.00;6465178;23;20012;-74
2022/01/30 05:27:58;;;;;;;33.83;7.00;;;;;;;3.55;86.06;102761.56;6464833;23;20031;-72
2022/01/30 05:30:29;;;;;;;26.40;7.40;;;;;;;3.43;86.46;102755.81;6464991;23;20012;-72
2022/01/30 05:33:01;;;;;;;35.23;6.80;;;;;;;3.41;87.02;102757.44;6465024;23;20036;-74
2022/01/30 05:35:33;;;;;;;31.37;7.00;;;;;;;3.37;87.10;102751.25;6465838;23;20076;-73
2022/01/30 05:38:05;;;;;;;32.97;7.15;;;;;;;3.36;87.26;102762.38;6465102;23;20005;-74
2022/01/30 05:40:37;;;;;;;30.02;6.45;;;;;;;3.32;87.30;102764.72;6465037;23;20004;-74
2022/01/30 05:43:09;;;;;;;29.57;7.97;;;;;;;3.27;87.55;102762.81;6464664;23;20256;-74
2022/01/30 05:45:44;;;;;;;31.43;7.23;;;;;;;3.29;87.33;102760.31;6464911;23;20063;-74
2022/01/30 05:48:17;;;;;;;24.15;5.93;;;;;;;3.31;86.66;102771.59;6464290;23;20044;-73
2022/01/30 05:50:49;;;;;;;24.92;6.75;;;;;;;3.22;86.99;102778.84;6463844;23;20005;-74
2022/01/30 05:53:20;;;;;;;22.33;6.30;;;;;;;3.28;86.39;102776.59;6463551;23;20008;-73
2022/01/30 05:55:52;;;;;;;29.60;5.53;;;;;;;3.25;86.34;102772.19;6463654;23;20008;-74
2022/01/30 05:58:23;;;;;;;29.63;6.70;;;;;;;3.24;86.08;102780.72;6463468;23;20009;-73
2022/01/30 06:00:54;;;;;;;33.10;7.30;;;;;;;3.33;85.60;102781.97;6463583;23;20050;-74
2022/01/30 06:03:26;;;;;;;21.93;5.07;;;;;;;3.24;85.75;102774.69;6463290;23;20016;-74
2022/01/30 06:05:58;;;;;;;28.45;5.40;;;;;;;3.28;85.23;102779.16;6463610;23;20023;-74
2022/01/30 06:08:42;;;;;;;30.10;6.73;;;;;;;3.26;85.10;102781.66;6463239;23;20075;-73
2022/01/30 06:11:14;;;;;;;28.17;6.53;;;;;;;3.29;84.90;102784.41;6463350;23;20009;-74
2022/01/30 06:13:46;;;;;;;22.10;5.35;;;;;;;3.25;85.14;102787.66;6463534;23;20331;-74
2022/01/30 06:16:17;;;;;;;25.73;6.60;;;;;;;3.30;84.48;102790.47;6462976;23;20013;-74
2022/01/30 06:18:48;;;;;;;37.80;6.03;;;;;;;3.20;84.78;102785.63;6462919;23;20004;-72
2022/01/30 06:21:20;;;;;;;21.87;6.00;;;;;;;3.21;85.11;102783.13;6462950;23;20036;-74
2022/01/30 06:23:51;;;;;;;26.87;4.77;;;;;;;3.23;85.06;102786.66;6463007;23;20430;-71
2022/01/30 06:26:22;;;;;;;25.33;6.60;;;;;;;3.35;84.32;102782.94;6463359;23;20009;-74
2022/01/30 06:28:54;;;;;;;28.57;5.03;;;;;;;3.41;84.19;102785.81;6462557;23;20058;-72
2022/01/30 06:31:26;;;;;;;30.90;5.73;;;;;;;3.43;84.00;102779.94;6436185;23;20705;-74
2022/01/30 06:33:58;;;;;;;26.45;5.65;;;;;;;3.49;83.69;102779.31;6436120;23;20012;-74
2022/01/30 06:36:29;;;;;;;19.50;4.93;;;;;;;3.62;83.14;102784.28;6463431;23;20310;-74
2022/01/30 06:39:01;;;;;;;23.37;5.90;;;;;;;3.69;82.75;102780.31;6463422;23;20007;-75
2022/01/30 06:41:32;;;;;;;18.77;4.37;;;;;;;3.72;82.55;102790.75;6463277;23;20013;-74
2022/01/30 06:44:06;;;;;;;21.37;4.10;;;;;;;3.81;81.73;102788.59;6462834;23;20015;-73
2022/01/30 06:46:38;;;;;;;20.42;4.30;;;;;;;3.86;81.50;102791.41;6462466;23;20005;-75
2022/01/30 06:49:09;;;;;;;30.67;5.97;;;;;;;3.92;81.12;102789.13;6411426;23;1220550;-75
2022/01/30 06:51:41;;;;;;;13.90;4.83;;;;;;;3.95;80.94;102793.53;6464467;23;20375;-72
2022/01/30 06:54:12;;;;;;;23.43;4.83;;;;;;;3.99;80.74;102805.75;6464631;23;20016;-73
2022/01/30 06:56:43;;;;;;;28.30;5.97;;;;;;;3.99;80.96;102809.25;6464531;23;20008;-74
2022/01/30 06:59:15;;;;;;;23.30;5.30;;;;;;;3.92;81.50;102811.47;6463956;23;20090;-74
2022/01/30 07:01:48;;;;;;;19.90;4.53;;;;;;;3.79;82.29;102810.88;6464299;23;20001;-74
2022/01/30 07:04:19;;;;;;;25.35;5.38;;;;;;;3.68;83.04;102817.22;6437599;23;20015;-74
2022/01/30 07:06:51;;;;;;;22.33;5.20;;;;;;;3.51;83.58;102816.41;6464331;23;19997;-74
2022/01/30 07:09:22;;;;;;;20.47;5.40;;;;;;;3.40;84.32;102822.72;6464239;23;20009;-74
2022/01/30 07:11:54;;;;;;;27.40;6.27;;;;;;;3.35;84.75;102825.06;6469645;23;20039;-76
2022/01/30 07:14:25;;;;;;;26.83;5.73;;;;;;;3.24;85.13;102827.09;6472599;23;20063;-76
2022/01/30 07:16:57;;;;;;;25.00;5.03;;;;;;;3.16;85.68;102825.84;6471829;23;20001;-75
2022/01/30 07:19:28;;;;;;;17.10;5.83;;;;;;;3.11;86.36;102829.88;6471838;23;20453;-75
2022/01/30 07:21:59;;;;;;;25.97;5.73;;;;;;;3.07;86.48;102835.69;6471699;23;20438;-76
2022/01/30 07:24:31;;;;;;;25.07;6.63;;;;;;;3.12;86.57;102836.78;6471508;23;20028;-75
2022/01/30 07:27:02;;;;;;;20.53;5.87;;;;;;;3.08;86.45;102840.91;6471605;23;20001;-74
2022/01/30 07:29:34;;;;;;;25.53;5.67;;;;;;;3.11;86.31;102837.63;6471585;23;20070;-75
2022/01/30 07:32:05;;;;;;;29.17;6.10;;;;;;;3.09;86.17;102834.06;6471481;23;20000;-75
2022/01/30 07:34:37;;;;;;;25.30;4.77;;;;;;;3.04;86.34;102840.66;6471735;23;20087;-75
2022/01/30 07:37:12;;;;;;;24.67;8.60;;;;;;;3.03;86.23;102844.94;6471076;23;19997;-74
2022/01/30 07:39:44;;;;;;;22.48;6.25;;;;;;;3.00;86.04;102851.66;6471360;23;20047;-75
2022/01/30 07:42:15;;;;;;;24.60;4.53;;;;;;;3.02;85.95;102853.47;6471701;23;20004;-74
2022/01/30 07:44:47;;;;;;;21.97;7.20;;;;;;;3.08;85.31;102855.50;6473433;23;20008;-73
2022/01/30 07:47:19;;;;;;;27.37;5.20;;;;;;;3.08;85.34;102869.25;6473193;23;20001;-74
2022/01/30 07:49:54;;;;;;;23.63;5.55;;;;;;;3.07;85.00;102870.06;6473047;23;20501;-74
2022/01/30 07:52:26;;;;;;;26.13;5.43;;;;;;;3.13;84.80;102866.91;6472849;23;20012;-74
2022/01/30 07:54:57;;;;;;;32.30;7.47;;;;;;;3.12;84.97;102865.13;6473132;23;20005;-75
2022/01/30 07:57:28;;;;;;;28.90;5.97;;;;;;;3.07;85.24;102869.19;6472922;23;20433;-75
2022/01/30 08:00:00;;;;;;;27.83;6.17;;;;;;;3.03;85.51;102862.13;6473096;23;20004;-74
2022/01/30 08:02:31;;;;;;;22.83;5.53;;;;;;;3.00;85.46;102869.69;6473138;23;20423;-76
2022/01/30 08:05:03;;;;;;;30.07;6.17;;;;;;;2.99;85.94;102870.47;6473297;23;20016;-74
2022/01/30 08:07:34;;;;;;;21.83;5.43;;;;;;;3.02;85.69;102865.47;6472735;23;20175;-73
2022/01/30 08:10:05;;;;;;;27.17;5.67;;;;;;;3.02;85.81;102868.94;6472958;23;20028;-75
2022/01/30 08:12:38;;;;;;;27.40;5.67;;;;;;;3.06;85.80;102872.56;6473376;23;20000;-73
2022/01/30 08:15:09;;;;;;;28.67;6.07;;;;;;;3.14;85.15;102878.09;6472766;23;20024;-75
2022/01/30 08:17:41;;;;;;;23.87;5.37;;;;;;;3.17;85.08;102881.75;6472813;23;20461;-74
2022/01/30 08:20:12;;;;;;;27.10;6.07;;;;;;;3.19;84.77;102877.53;6472584;23;20000;-74
2022/01/30 08:22:48;;;;;;;28.43;6.70;;;;;;;3.29;84.14;102884.06;6472245;23;20024;-74
2022/01/30 08:25:22;;;;;;;21.40;7.25;;;;;;;3.38;83.44;102887.09;6472746;23;20001;-74
2022/01/30 08:27:54;;;;;;;22.90;6.25;;;;;;;3.47;82.96;102895.28;6473288;23;20046;-74
2022/01/30 08:30:27;;;;;;;21.88;5.63;;;;;;;3.56;82.59;102892.28;6472698;23;20005;-75
2022/01/30 08:32:59;;;;;;;27.85;7.07;;;;;;;3.64;81.93;102893.56;6472964;23;20456;-74
2022/01/30 08:35:32;;;;;;;23.52;6.38;;;;;;;3.75;81.45;102895.78;6473398;23;20004;-75
2022/01/30 08:38:03;;;;;;;27.23;6.28;;;;;;;3.87;80.68;102890.34;6467815;23;20505;-74
2022/01/30 08:40:34;;;;;;;24.37;7.53;;;;;;;3.98;79.94;102895.22;6470726;23;20004;-74
2022/01/30 08:43:06;;;;;;;20.70;5.87;;;;;;;4.19;79.57;102889.31;6471944;23;20005;-74
2022/01/30 08:45:37;;;;;;;27.40;6.13;;;;;;;4.44;79.36;102883.56;6467309;23;20000;-75
2022/01/30 08:48:09;;;;;;;21.17;5.97;;;;;;;4.60;77.53;102892.03;6467215;23;20013;-75
2022/01/30 08:50:40;;;;;;;22.87;4.80;;;;;;;4.58;77.13;102891.97;6467349;23;20001;-74
2022/01/30 08:53:13;;;;;;;23.43;5.60;;;;;;;4.56;76.83;102891.03;6471526;23;20016;-74
2022/01/30 08:55:45;;;;;;;24.73;5.75;;;;;;;4.62;76.30;102888.72;6470576;23;20007;-74
2022/01/30 08:58:16;;;;;;;23.00;5.43;;;;;;;4.70;76.12;102884.78;6466794;23;20005;-74
2022/01/30 09:00:48;;;;;;;25.10;6.00;;;;;;;4.67;75.68;102886.31;6471730;23;20436;-73
2022/01/30 09:03:19;;;;;;;24.57;5.87;;;;;;;4.70;76.31;102889.03;6471510;23;20005;-74
2022/01/30 09:05:50;;;;;;;29.07;6.17;;;;;;;4.76;76.23;102889.31;6470932;23;20054;-73
2022/01/30 09:08:22;;;;;;;27.33;8.73;;;;;;;4.82;75.57;102893.91;6470111;23;20035;-75
2022/01/30 09:10:54;;;;;;;28.07;5.07;;;;;;;4.97;75.34;102901.44;6471107;23;20374;-73
2022/01/30 09:13:26;;;;;;;;;;;;;;;5.08;75.13;102910.56;6470230;23;20453;-74
2022/01/30 09:15:59;;;;;;;23.88;5.20;;;;;;;5.01;74.29;102911.13;6472115;23;19990;-74
2022/01/30 09:18:30;;;;;;;30.67;5.07;;;;;;;5.05;74.15;102906.13;6468881;23;20011;-75
2022/01/30 09:21:02;;;;;;;23.77;5.70;;;;;;;5.26;73.52;102919.13;6471579;23;20072;-72
2022/01/30 09:23:33;;;;;;;41.53;7.97;;;;;;;5.49;72.83;102932.19;6470784;23;20008;-73
2022/01/30 09:26:05;;;;;;;28.63;6.50;;;;;;;5.66;71.78;102928.56;6469562;23;20012;-74
2022/01/30 09:28:36;;;;;;;33.57;7.40;;;;;;;5.78;70.33;102924.72;6470247;23;20000;-74
2022/01/30 09:31:08;;;;;;;24.23;6.20;;;;;;;5.89;69.65;102925.16;6470984;23;20008;-74
2022/01/30 09:33:39;;;;;;;25.87;6.27;;;;;;;6.13;70.83;102921.00;6472719;23;20004;-74
2022/01/30 09:36:12;;;;;;;25.83;6.53;;;;;;;6.07;68.54;102920.78;6471740;23;20077;-74
2022/01/30 09:38:43;;;;;;;21.65;6.00;;;;;;;6.15;68.95;102931.44;6471994;23;20008;-72
2022/01/30 09:41:16;;;;;;;30.73;6.63;;;;;;;6.28;67.90;102937.97;6472122;23;20423;-74
2022/01/30 09:43:48;;;;;;;27.50;6.15;;;;;;;6.12;66.84;102945.16;6472473;23;20012;-74
2022/01/30 09:46:19;;;;;;;26.65;6.47;;;;;;;6.13;67.21;102946.03;6472335;23;20004;-74
2022/01/30 09:48:52;;;;;;;29.50;6.73;;;;;;;6.48;65.79;102942.25;6471920;23;20390;-74
2022/01/30 09:51:23;;;;;;;20.60;6.40;;;;;;;6.53;65.65;102945.00;6472175;23;20082;-74
2022/01/30 09:53:54;;;;;;;24.40;6.27;;;;;;;6.54;65.34;102950.25;6472727;23;20005;-74
2022/01/30 09:56:26;;;;;;;28.37;7.57;;;;;;;6.49;65.28;102953.50;6471983;23;20059;-75
2022/01/30 09:58:57;;;;;;;29.50;8.10;;;;;;;6.55;65.55;102938.19;6472376;23;20508;-74
2022/01/30 10:01:33;;;;;;;23.40;6.03;;;;;;;6.49;64.89;102954.38;6472132;23;20007;-75
2022/01/30 10:04:06;;;;;;;23.85;6.25;;;;;;;6.49;65.60;102956.09;6473256;23;20004;-75
2022/01/30 10:07:15;;;;;;;23.48;5.82;;;;;;;6.37;65.89;102957.34;6477544;23;20009;-73
2022/01/30 10:09:49;;;;;;;21.77;5.68;;;;;;;6.32;66.18;102958.00;6406959;23;20037;-73
2022/01/30 10:12:23;;;;;;;22.52;7.25;;;;;;;6.85;64.94;102966.09;6406876;23;20009;-74
2022/01/30 10:15:05;;;;;;;23.17;6.38;;;;;;;7.35;63.41;102976.56;6407109;23;20526;-74
2022/01/30 10:17:47;;;;;;;26.75;7.60;;;;;;;7.31;62.35;102978.19;6406923;23;20056;-74
2022/01/30 10:20:25;;;;;;;28.35;5.80;;;;;;;7.20;62.59;102976.91;6406796;23;20057;-74
2022/01/30 10:22:59;;;;;;;27.92;6.25;;;;;;;7.30;62.69;102979.88;6406711;23;20013;-74
2022/01/30 10:25:39;;;;;;;30.70;6.82;;;;;;;7.49;62.18;102980.53;6406859;23;20524;-74
2022/01/30 10:28:14;;;;;;;35.00;6.80;;;;;;;7.39;63.26;102970.63;6406987;23;20001;-74
2022/01/30 10:30:53;;;;;;;22.05;5.07;;;;;;;7.25;62.77;102977.94;6406794;23;20037;-74
2022/01/30 10:33:50;;;;;;;28.15;6.10;;;;;;;7.53;62.79;102985.00;6406002;23;20049;-74
2022/01/30 10:36:23;;;;;;;25.30;5.93;;;;;;;8.27;61.07;102974.47;6406413;23;20016;-74
2022/01/30 10:39:13;;;;;;;33.75;7.55;;;;;;;8.47;60.25;102969.94;6406278;23;20010;-73
2022/01/30 10:41:52;;;;;;;26.30;7.03;;;;;;;8.89;58.02;102972.06;6406118;23;20013;-74
2022/01/30 10:44:24;;;;;;;25.10;5.65;;;;;;;9.63;57.10;102968.03;6418443;23;20005;-75
2022/01/30 10:46:55;;;;;;;23.17;7.23;;;;;;;10.05;55.68;102964.75;6471983;23;20012;-75
2022/01/30 10:49:26;;;;;;;21.60;6.57;;;;;;;9.98;54.40;102970.63;6471680;23;20020;-74
2022/01/30 10:52:00;;;;;;;27.90;6.63;;;;;;;9.70;54.24;102969.06;6471365;23;20008;-74
2022/01/30 10:54:33;;;;;;;31.98;6.97;;;;;;;8.90;55.19;102976.44;6471316;23;20024;-75
2022/01/30 10:57:05;;;;;;;31.13;7.80;;;;;;;8.68;57.60;102961.91;6471464;23;20005;-74
2022/01/30 10:59:43;;;;;;;22.73;6.68;;;;;;;8.64;58.71;102967.84;6471026;23;20076;-75
2022/01/30 11:02:17;;;;;;;28.48;6.65;;;;;;;8.14;58.18;102974.91;6470900;23;20059;-74
2022/01/30 11:04:50;;;;;;;34.15;7.40;;;;;;;8.09;58.97;102964.38;6472337;23;20013;-74
2022/01/30 11:07:28;;;;;;;34.70;7.65;;;;;;;8.07;58.76;102960.84;6471280;23;20075;-74
2022/01/30 11:10:19;;;;;;;27.58;6.20;;;;;;;8.18;58.26;102950.81;6471286;23;20449;-74
2022/01/30 11:13:08;;;;;;;30.13;6.95;;;;;;;8.15;58.46;102946.41;6471428;23;20005;-74
2022/01/30 11:15:43;;;;;;;27.35;6.03;;;;;;;7.89;58.34;102948.16;6474755;23;20008;-74
2022/01/30 11:18:16;;;;;;;27.13;6.72;;;;;;;7.79;59.14;102939.19;6472337;23;20032;-74
2022/01/30 11:20:49;;;;;;;30.75;7.95;;;;;;;8.22;56.17;102940.53;6473176;23;20284;-75
2022/01/30 11:23:23;;;;;;;;;;;;;;;9.17;55.97;102932.97;6473582;23;20019;-74
2022/01/30 11:25:55;;;;;;;30.60;6.65;;;;;;;9.03;52.46;102932.56;6473716;23;19973;-75
2022/01/30 11:28:26;;;;;;;28.00;7.43;;;;;;;8.24;53.83;102944.91;6473158;23;20004;-74
2022/01/30 11:30:58;;;;;;;27.97;7.70;;;;;;;8.82;54.38;102935.44;6473371;23;20005;-74
2022/01/30 11:33:31;;;;;;;24.13;6.97;;;;;;;8.92;51.57;102933.16;6473533;23;20000;-74
2022/01/30 11:36:02;;;;;;;26.38;6.45;;;;;;;9.05;52.46;102931.78;6473223;23;20004;-74
2022/01/30 11:38:36;;;;;;;25.13;6.47;;;;;;;8.94;52.63;102926.25;6472992;23;20426;-74
2022/01/30 11:41:09;;;;;;;32.30;7.03;;;;;;;8.51;54.12;102935.41;6473337;23;20046;-74
2022/01/30 11:44:09;;;;;;;33.33;6.95;;;;;;;7.99;55.89;102939.81;6472653;23;20001;-74
2022/01/30 11:46:40;;;;;;;26.88;7.82;;;;;;;7.98;55.40;102930.25;6473422;23;20092;-74
2022/01/30 11:49:13;;;;;;;28.93;6.53;;;;;;;7.95;54.56;102937.97;6473271;23;20033;-74
2022/01/30 11:51:53;;;;;;;23.95;6.68;;;;;;;7.93;55.37;102931.81;6473380;23;20072;-74
2022/01/30 11:54:46;;;;;;;29.15;6.97;;;;;;;8.14;55.49;102931.63;6473461;23;20107;-72
2022/01/30 11:57:20;;;;;;;27.63;7.22;;;;;;;8.32;54.88;102925.25;6472979;23;20004;-74
2022/01/30 11:59:54;;;;;;;30.77;6.93;;;;;;;8.86;54.24;102924.28;6473058;23;20004;-73
2022/01/30 12:02:28;;;;;;;27.23;5.85;;;;;;;9.19;52.90;102920.84;6473073;23;20045;-76
2022/01/30 12:05:05;;;;;;;23.13;6.85;;;;;;;10.38;52.84;102916.88;6473256;23;20019;-74
2022/01/30 12:07:48;;;;;;;23.10;5.50;;;;;;;10.60;50.18;102917.38;6472983;23;20004;-74
2022/01/30 12:10:20;;;;;;;29.23;6.70;;;;;;;10.39;49.83;102916.91;6472829;23;20382;-75
2022/01/30 12:12:52;;;;;;;24.23;6.90;;;;;;;11.30;48.06;102916.16;6472348;23;20008;-74
2022/01/30 12:15:36;;;;;;;18.35;5.18;;;;;;;11.13;48.27;102914.94;6473785;23;20009;-75
2022/01/30 12:18:12;;;;;;;23.45;5.70;;;;;;;9.93;48.76;102912.34;6472931;23;20004;-75
2022/01/30 12:20:59;;;;;;;18.77;6.50;;;;;;;8.74;50.71;102911.81;6472322;23;20000;-75
2022/01/30 12:23:36;;;;;;;20.08;5.18;;;;;;;8.12;52.21;102920.31;6473527;23;20035;-75
2022/01/30 12:26:14;;;;;;;22.33;5.97;;;;;;;7.97;52.64;102912.94;6472552;23;20028;-75
2022/01/30 12:28:49;;;;;;;24.90;5.35;;;;;;;7.86;53.02;102914.28;6472664;23;20449;-75
2022/01/30 12:31:38;;;;;;;26.67;6.10;;;;;;;9.05;51.53;102900.56;6473023;23;20024;-75
2022/01/30 12:34:14;;;;;;;23.35;5.65;;;;;;;10.67;46.87;102904.47;6473317;23;20060;-75
2022/01/30 12:36:55;;;;;;;20.40;5.47;;;;;;;12.07;43.57;102895.66;6472991;23;20378;-75
2022/01/30 12:39:26;;;;;;;18.98;5.18;;;;;;;12.26;42.96;102886.34;6473004;23;20339;-75
2022/01/30 12:41:57;;;;;;;16.87;5.60;;;;;;;12.32;41.69;102870.75;6472559;23;20008;-75
2022/01/30 12:44:30;;;;;;;20.80;6.63;;;;;;;13.58;40.99;102860.75;6472318;23;20323;-75
2022/01/30 12:47:02;;;;;;;26.40;7.00;;;;;;;14.11;39.03;102861.13;6472792;23;20001;-75
2022/01/30 12:49:42;;;;;;;24.00;5.80;;;;;;;14.21;38.63;102863.78;6472454;23;20016;-75
2022/01/30 12:52:49;;;;;;;19.40;5.43;;;;;;;13.19;40.41;102853.41;6472703;23;20012;-74